Terminal Aerodrome Forecast
Issued by NWS Albany, NY

Home | Current Version | Previous Version | Text Only | Print | Product List | Glossary On
Versions: 1 2 3 4 5 6 7 8 9 10 11 12 13 14 15 16 17 18 19 20 21
365
FTUS41 KALY 252341
TAFGFL
TAF
KGFL 252341Z 2600/2624 03006KT P6SM OVC035
      TEMPO 2601/2603 SCT035 BKN200
     FM260300 02005KT P6SM SCT200
     FM261500 VRB05KT P6SM OVC040 PROB30 2615/2618 2SM -FZRAPL BR
      OVC020
     FM261800 12007KT 4SM -RA BR OVC020=

USA.gov is the U.S. government's official web portal to all federal, state and local government web resources and services.